createdAt,value
2019-02-04T00:01:27.657Z,39.13
2019-02-04T00:03:57.204Z,35.57
2019-02-04T00:06:26.682Z,38.50
2019-02-04T00:08:56.139Z,38.77
2019-02-04T00:11:25.545Z,35.23
2019-02-04T00:13:55.013Z,38.27
2019-02-04T00:16:24.394Z,36.00
2019-02-04T00:18:53.781Z,34.97
2019-02-04T00:21:23.223Z,33.27
2019-02-04T00:23:52.634Z,33.53
2019-02-04T00:26:21.995Z,40.40
2019-02-04T00:28:51.341Z,35.10
2019-02-04T00:31:21.119Z,37.37
2019-02-04T00:33:50.586Z,36.17
2019-02-04T00:36:19.941Z,34.90
2019-02-04T00:38:49.233Z,29.87
2019-02-04T00:41:18.600Z,33.23
2019-02-04T00:43:47.954Z,32.20
2019-02-04T00:46:17.489Z,37.73
2019-02-04T00:48:47.781Z,35.70
2019-02-04T00:51:17.385Z,32.30
2019-02-04T00:53:46.912Z,32.53
2019-02-04T00:56:16.923Z,30.77
2019-02-04T00:58:46.289Z,30.43
2019-02-04T01:01:15.685Z,29.50
2019-02-04T01:03:46.257Z,35.40
2019-02-04T01:06:16.094Z,36.07
2019-02-04T01:08:45.580Z,30.30
2019-02-04T01:11:14.929Z,23.90
2019-02-04T01:13:44.666Z,29.57
2019-02-04T01:16:14.044Z,24.87
2019-02-04T01:18:43.411Z,24.70
2019-02-04T01:21:12.765Z,28.03
2019-02-04T01:23:42.139Z,26.70
2019-02-04T01:26:11.469Z,26.60
2019-02-04T01:28:40.826Z,26.87
2019-02-04T01:31:10.184Z,31.73
2019-02-04T01:33:39.545Z,25.73
2019-02-04T01:36:08.922Z,29.07
2019-02-04T01:38:38.274Z,28.17
2019-02-04T01:41:07.586Z,35.30
2019-02-04T01:43:37.375Z,42.93
2019-02-04T01:46:06.741Z,48.87
2019-02-04T01:48:36.109Z,42.40
2019-02-04T01:51:05.468Z,43.87
2019-02-04T01:53:34.857Z,47.00
2019-02-04T01:56:04.482Z,47.77
2019-02-04T01:58:33.909Z,44.43
2019-02-04T02:01:03.258Z,46.57
2019-02-04T02:03:32.722Z,45.80
2019-02-04T02:06:02.081Z,41.30
2019-02-04T02:08:31.477Z,39.97
2019-02-04T02:11:00.980Z,36.53
2019-02-04T02:13:30.329Z,42.63
2019-02-04T02:15:59.645Z,45.70
2019-02-04T02:18:29.002Z,38.30
2019-02-04T02:20:58.332Z,43.23
2019-02-04T02:23:27.690Z,40.40
2019-02-04T02:25:57.056Z,39.90
2019-02-04T02:28:26.419Z,40.13
2019-02-04T02:30:55.762Z,46.97
2019-02-04T02:33:25.145Z,49.67
2019-02-04T02:35:54.529Z,45.60
2019-02-04T02:38:24.256Z,49.33
2019-02-04T02:40:53.627Z,57.80
2019-02-04T02:43:22.974Z,58.10
2019-02-04T02:45:52.302Z,57.63
2019-02-04T02:48:21.645Z,53.50
2019-02-04T02:50:51.072Z,56.33
2019-02-04T02:53:20.831Z,59.43
2019-02-04T02:55:50.181Z,54.03
2019-02-04T02:58:19.509Z,58.63
2019-02-04T03:00:48.826Z,54.77
2019-02-04T03:03:18.140Z,54.67
2019-02-04T03:05:47.471Z,35.67
2019-02-04T03:08:16.870Z,39.30
2019-02-04T03:10:46.204Z,43.93
2019-02-04T03:13:15.512Z,49.83
2019-02-04T03:15:44.843Z,44.83
2019-02-04T03:18:14.217Z,44.60
2019-02-04T03:20:43.630Z,38.53
2019-02-04T03:23:12.980Z,46.20
2019-02-04T03:25:42.421Z,41.43
2019-02-04T03:28:11.783Z,38.90
2019-02-04T03:30:41.149Z,48.77
2019-02-04T03:33:10.491Z,37.30
2019-02-04T03:35:39.848Z,38.77
2019-02-04T03:38:09.239Z,39.97
2019-02-04T03:40:38.585Z,41.13
2019-02-04T03:43:07.920Z,42.93
2019-02-04T03:45:37.257Z,48.33
2019-02-04T03:48:08.398Z,41.20
2019-02-04T03:50:37.651Z,45.90
2019-02-04T03:53:06.961Z,40.33
2019-02-04T03:55:36.343Z,46.00
2019-02-04T03:58:05.996Z,39.67
2019-02-04T04:00:36.610Z,40.33
2019-02-04T04:03:05.965Z,42.27
2019-02-04T04:05:35.366Z,45.13
2019-02-04T04:08:04.825Z,44.00
2019-02-04T04:10:34.171Z,39.03
2019-02-04T04:13:03.505Z,35.90
2019-02-04T04:15:32.908Z,40.17
2019-02-04T04:18:02.520Z,44.97
2019-02-04T04:20:31.852Z,41.40
2019-02-04T04:23:01.191Z,43.30
2019-02-04T04:25:32.698Z,37.97
2019-02-04T04:28:02.049Z,41.67
2019-02-04T04:30:31.393Z,42.23
2019-02-04T04:33:00.696Z,36.40
2019-02-04T04:35:30.074Z,42.07
2019-02-04T04:37:59.530Z,40.57
2019-02-04T04:40:28.820Z,41.53
2019-02-04T04:42:58.232Z,43.93
2019-02-04T04:45:28.082Z,37.77
2019-02-04T04:47:57.422Z,42.50
2019-02-04T04:50:26.802Z,40.10
2019-02-04T04:52:56.120Z,46.63
2019-02-04T04:55:26.615Z,45.27
2019-02-04T04:57:56.438Z,51.27
2019-02-04T05:00:30.725Z,45.57
2019-02-04T05:03:00.067Z,46.07
2019-02-04T05:05:29.604Z,51.47
2019-02-04T05:07:58.968Z,56.73
2019-02-04T05:10:28.342Z,50.67
2019-02-04T05:12:57.677Z,52.57
2019-02-04T05:15:28.089Z,58.23
2019-02-04T05:17:57.401Z,34.00
2019-02-04T05:20:26.755Z,33.23
2019-02-04T05:22:56.165Z,30.70
2019-02-04T05:25:25.542Z,37.63
2019-02-04T05:27:55.200Z,43.33
2019-02-04T05:30:25.322Z,51.03
2019-02-04T05:32:54.698Z,51.77
2019-02-04T05:35:24.068Z,46.07
2019-02-04T05:37:53.561Z,31.50
2019-02-04T05:40:22.915Z,34.53
2019-02-04T05:42:52.248Z,34.10
2019-02-04T05:45:21.893Z,36.63
2019-02-04T05:47:51.261Z,39.67
2019-02-04T05:50:20.723Z,34.43
2019-02-04T05:52:50.641Z,46.83
2019-02-04T05:55:21.578Z,47.30
2019-02-04T05:57:50.935Z,44.60
2019-02-04T06:00:26.886Z,49.70
2019-02-04T06:02:56.377Z,60.13
2019-02-04T06:05:25.820Z,57.03
2019-02-04T06:07:55.162Z,63.90
2019-02-04T06:10:24.502Z,56.90
2019-02-04T06:12:53.867Z,50.67
2019-02-04T06:15:23.244Z,49.87
2019-02-04T06:17:52.583Z,56.90
2019-02-04T06:20:22.566Z,62.63
2019-02-04T06:22:52.276Z,69.00
2019-02-04T06:25:21.636Z,67.67
2019-02-04T06:27:51.006Z,65.07
2019-02-04T06:30:20.437Z,61.57
2019-02-04T06:32:49.926Z,72.10
2019-02-04T06:35:19.665Z,57.83
2019-02-04T06:37:49.424Z,63.93
2019-02-04T06:40:19.083Z,61.40
2019-02-04T06:42:48.536Z,61.80
2019-02-04T06:45:18.093Z,55.13
2019-02-04T06:47:47.775Z,57.97
2019-02-04T06:50:17.941Z,54.93
2019-02-04T06:52:47.558Z,56.90
2019-02-04T06:55:19.245Z,58.13
2019-02-04T06:57:48.711Z,57.93
2019-02-04T07:00:18.679Z,60.03
2019-02-04T07:02:48.552Z,50.37
2019-02-04T07:05:18.421Z,48.50
2019-02-04T07:07:47.790Z,55.30
2019-02-04T07:10:19.743Z,51.83
2019-02-04T07:12:49.551Z,50.67
2019-02-04T07:15:18.971Z,52.53
2019-02-04T07:17:48.311Z,53.87
2019-02-04T07:20:20.420Z,53.70
2019-02-04T07:22:49.790Z,60.83
2019-02-04T07:25:19.800Z,69.83
2019-02-04T07:27:49.145Z,67.07
2019-02-04T07:30:20.718Z,63.47
2019-02-04T07:32:50.655Z,60.57
2019-02-04T07:35:20.132Z,66.60
2019-02-04T07:37:49.925Z,82.47
2019-02-04T07:40:24.231Z,83.60
2019-02-04T07:42:53.728Z,86.07
2019-02-04T07:45:23.057Z,102.20
2019-02-04T07:47:52.764Z,123.53
2019-02-04T07:50:22.361Z,96.13
2019-02-04T07:52:52.024Z,102.00
2019-02-04T07:55:21.403Z,85.60
2019-02-04T07:57:50.790Z,105.17
2019-02-04T08:00:28.445Z,78.70
2019-02-04T08:02:58.195Z,78.03
2019-02-04T08:05:27.667Z,77.23
2019-02-04T08:07:57.155Z,61.67
2019-02-04T08:10:26.478Z,57.53
2019-02-04T08:13:01.571Z,50.57
2019-02-04T08:15:29.477Z,56.63
2019-02-04T08:17:58.854Z,57.63
2019-02-04T08:20:28.430Z,65.53
2019-02-04T08:22:57.948Z,54.47
2019-02-04T08:25:27.641Z,57.73
2019-02-04T08:27:57.485Z,54.50
2019-02-04T08:30:29.490Z,80.80
2019-02-04T08:32:58.824Z,53.47
2019-02-04T08:35:28.184Z,54.73
2019-02-04T08:37:57.494Z,56.73
2019-02-04T08:40:26.893Z,63.30
2019-02-04T08:42:56.521Z,58.67
2019-02-04T08:45:25.855Z,56.53
2019-02-04T08:47:55.199Z,53.83
2019-02-04T08:50:25.072Z,54.10
2019-02-04T08:52:54.610Z,52.60
2019-02-04T08:55:24.286Z,46.27
2019-02-04T08:57:54.392Z,48.07
2019-02-04T09:00:24.236Z,48.33
2019-02-04T09:02:53.621Z,49.40
2019-02-04T09:05:23.718Z,42.80
2019-02-04T09:07:53.135Z,44.13
2019-02-04T09:10:33.390Z,45.00
2019-02-04T09:13:03.171Z,54.93
2019-02-04T09:15:32.618Z,41.53
2019-02-04T09:18:03.717Z,43.77
2019-02-04T09:20:34.869Z,39.43
2019-02-04T09:23:06.193Z,47.17
2019-02-04T09:25:36.146Z,44.03
2019-02-04T09:28:05.719Z,42.87
2019-02-04T09:30:35.087Z,36.70
2019-02-04T09:33:04.649Z,37.37
2019-02-04T09:35:34.039Z,45.03
2019-02-04T09:38:03.394Z,38.80
2019-02-04T09:40:35.937Z,42.60
2019-02-04T09:43:26.937Z,44.47
2019-02-04T09:45:50.662Z,42.67
2019-02-04T09:48:21.161Z,28.07
2019-02-04T09:50:53.924Z,29.93
2019-02-04T09:53:29.343Z,32.77
2019-02-04T09:55:58.670Z,34.20
2019-02-04T09:58:28.117Z,29.70
2019-02-04T10:00:57.580Z,35.13
2019-02-04T10:03:27.220Z,31.93
2019-02-04T10:05:59.363Z,27.23
2019-02-04T10:08:28.964Z,14.63
2019-02-04T10:11:01.030Z,26.40
2019-02-04T10:13:30.572Z,24.90
2019-02-04T10:16:00.019Z,34.13
2019-02-04T10:18:29.437Z,29.47
2019-02-04T10:20:58.817Z,34.50
2019-02-04T10:23:28.285Z,37.07
2019-02-04T10:25:57.671Z,38.10
2019-02-04T10:28:27.025Z,30.37
2019-02-04T10:30:56.768Z,29.27
2019-02-04T10:33:26.331Z,26.03
2019-02-04T10:35:57.041Z,28.97
2019-02-04T10:38:26.456Z,27.10
2019-02-04T10:40:55.875Z,28.77
2019-02-04T10:43:25.410Z,32.57
2019-02-04T10:45:54.717Z,29.43
2019-02-04T10:48:24.110Z,27.20
2019-02-04T10:50:53.434Z,30.73
2019-02-04T10:53:22.875Z,28.20
2019-02-04T10:55:52.335Z,31.57
2019-02-04T10:58:21.745Z,32.63
2019-02-04T11:00:51.230Z,31.13
2019-02-04T11:03:20.599Z,42.37
2019-02-04T11:05:50.084Z,34.73
2019-02-04T11:08:19.573Z,34.27
2019-02-04T11:10:48.981Z,34.67
2019-02-04T11:13:19.039Z,34.17
2019-02-04T11:15:49.723Z,33.30
2019-02-04T11:18:20.155Z,32.90
2019-02-04T11:20:57.866Z,36.20
2019-02-04T11:23:21.035Z,32.30
2019-02-04T11:25:50.612Z,37.27
2019-02-04T11:28:21.319Z,44.23
2019-02-04T11:31:03.342Z,38.90
2019-02-04T11:33:33.370Z,36.60
2019-02-04T11:36:02.861Z,29.47
2019-02-04T11:38:32.278Z,34.30
2019-02-04T11:41:01.722Z,32.30
2019-02-04T11:43:31.156Z,43.73
2019-02-04T11:46:00.548Z,37.93
2019-02-04T11:48:30.950Z,41.07
2019-02-04T11:51:09.356Z,37.77
2019-02-04T11:53:33.225Z,39.90
2019-02-04T11:56:03.665Z,38.53
2019-02-04T11:58:34.389Z,39.53
2019-02-04T12:01:13.173Z,37.87
2019-02-04T12:03:42.584Z,41.03
2019-02-04T12:06:12.015Z,39.63
2019-02-04T12:08:42.567Z,42.30
2019-02-04T12:11:22.587Z,37.93
2019-02-04T12:13:52.102Z,47.97
2019-02-04T12:16:21.525Z,40.17
2019-02-04T12:18:50.923Z,44.83
2019-02-04T12:21:21.825Z,46.50
2019-02-04T12:23:51.337Z,50.37
2019-02-04T12:26:20.711Z,49.37
2019-02-04T12:28:50.152Z,49.77
2019-02-04T12:31:21.032Z,49.80
2019-02-04T12:33:50.362Z,50.47
2019-02-04T12:36:19.696Z,47.27
2019-02-04T12:38:50.915Z,45.43
2019-02-04T12:41:20.490Z,45.07
2019-02-04T12:43:49.842Z,47.47
2019-02-04T12:46:19.460Z,42.90
2019-02-04T12:48:48.834Z,36.10
2019-02-04T12:51:18.263Z,37.67
2019-02-04T12:53:48.374Z,28.13
2019-02-04T12:56:18.205Z,32.57
2019-02-04T12:58:55.251Z,32.60
2019-02-04T13:01:19.499Z,33.70
2019-02-04T13:03:49.409Z,30.17
2019-02-04T13:06:19.317Z,33.73
2019-02-04T13:08:52.384Z,33.60
2019-02-04T13:11:22.249Z,31.13
2019-02-04T13:13:56.911Z,33.17
2019-02-04T13:16:26.883Z,32.20
2019-02-04T13:18:56.945Z,31.43
2019-02-04T13:21:26.709Z,33.03
2019-02-04T13:24:00.534Z,28.37
2019-02-04T13:26:30.245Z,25.23
2019-02-04T13:29:00.039Z,40.47
2019-02-04T13:31:29.393Z,36.13
2019-02-04T13:33:58.772Z,29.10
2019-02-04T13:36:28.167Z,22.70
2019-02-04T13:38:57.566Z,23.93
2019-02-04T13:41:27.033Z,22.40
2019-02-04T13:43:56.448Z,25.73
2019-02-04T13:46:25.845Z,21.37
2019-02-04T13:48:55.188Z,26.90
2019-02-04T13:51:24.550Z,22.43
2019-02-04T13:53:57.069Z,25.60
2019-02-04T13:56:25.393Z,21.73
2019-02-04T13:58:54.749Z,26.83
2019-02-04T14:01:24.164Z,27.43
2019-02-04T14:03:53.529Z,23.03
2019-02-04T14:06:22.889Z,26.10
2019-02-04T14:08:52.465Z,28.10
2019-02-04T14:11:21.815Z,23.90
2019-02-04T14:13:51.236Z,27.33
2019-02-04T14:16:20.643Z,27.40
2019-02-04T14:18:49.973Z,26.03
2019-02-04T14:21:19.415Z,17.63
2019-02-04T14:23:48.755Z,29.93
2019-02-04T14:26:18.527Z,20.03
2019-02-04T14:28:48.071Z,18.50
2019-02-04T14:31:17.435Z,25.10
2019-02-04T14:33:46.863Z,19.87
2019-02-04T14:36:16.608Z,19.07
2019-02-04T14:38:46.073Z,17.20
2019-02-04T14:41:15.453Z,20.80
2019-02-04T14:44:16.602Z,23.53
2019-02-04T14:46:57.804Z,22.63
2019-02-04T14:50:14.559Z,21.90
2019-02-04T14:53:02.746Z,20.23
2019-02-04T14:56:11.303Z,25.23
2019-02-04T14:59:09.249Z,24.90
2019-02-04T15:02:07.910Z,26.23
2019-02-04T15:05:22.904Z,21.70
2019-02-04T15:09:00.683Z,21.20
2019-02-04T15:11:37.767Z,23.33
2019-02-04T15:15:12.733Z,23.47
2019-02-04T15:17:55.553Z,21.77
2019-02-04T15:20:55.650Z,25.27
2019-02-04T15:23:52.842Z,23.27
2019-02-04T15:27:33.574Z,29.10
2019-02-04T15:30:41.795Z,21.97
2019-02-04T15:33:27.868Z,24.37
2019-02-04T15:36:40.008Z,27.23
2019-02-04T15:39:46.045Z,27.03
2019-02-04T15:42:51.133Z,22.37
2019-02-04T15:46:01.457Z,23.37
2019-02-04T15:48:56.093Z,22.43
2019-02-04T15:51:33.991Z,26.13
2019-02-04T15:54:06.143Z,22.00
2019-02-04T15:56:35.622Z,25.37
2019-02-04T15:59:05.222Z,30.70
2019-02-04T16:01:35.033Z,31.70
2019-02-04T16:04:26.996Z,29.37
2019-02-04T16:06:56.352Z,22.70
2019-02-04T16:09:25.910Z,20.70
2019-02-04T16:11:55.291Z,21.57
2019-02-04T16:14:24.643Z,21.47
2019-02-04T16:16:54.183Z,19.60
2019-02-04T16:19:23.756Z,26.20
2019-02-04T16:21:53.105Z,22.57
2019-02-04T16:24:22.495Z,20.63
2019-02-04T16:26:51.866Z,19.63
2019-02-04T16:29:21.282Z,26.43
2019-02-04T16:31:50.623Z,23.30
2019-02-04T16:34:20.041Z,24.67
2019-02-04T16:36:49.384Z,27.97
2019-02-04T16:39:19.126Z,32.53
2019-02-04T16:41:48.499Z,30.37
2019-02-04T16:44:17.909Z,33.47
2019-02-04T16:46:47.228Z,34.47
2019-02-04T16:49:16.591Z,32.67
2019-02-04T16:51:45.941Z,29.90
2019-02-04T16:54:15.267Z,27.13
2019-02-04T16:56:44.568Z,30.33
2019-02-04T16:59:13.936Z,27.50
2019-02-04T17:01:43.277Z,28.23
2019-02-04T17:04:13.075Z,29.27
2019-02-04T17:06:43.612Z,30.27
2019-02-04T17:09:13.835Z,33.17
2019-02-04T17:11:43.288Z,28.03
2019-02-04T17:14:13.678Z,34.10
2019-02-04T17:16:43.054Z,34.97
2019-02-04T17:19:12.409Z,30.50
2019-02-04T17:21:41.740Z,28.90
2019-02-04T17:24:11.107Z,27.63
2019-02-04T17:26:40.463Z,30.17
2019-02-04T17:29:10.332Z,29.60
2019-02-04T17:31:39.719Z,24.80
2019-02-04T17:34:09.081Z,29.53
2019-02-04T17:36:38.455Z,29.53
2019-02-04T17:39:09.538Z,25.70
2019-02-04T17:41:38.951Z,24.97
2019-02-04T17:44:08.674Z,31.63
2019-02-04T17:46:38.323Z,26.03
2019-02-04T17:49:07.664Z,28.87
2019-02-04T17:51:37.150Z,25.30
2019-02-04T17:54:06.550Z,27.60
2019-02-04T17:56:36.054Z,26.10
2019-02-04T17:59:05.902Z,33.23
2019-02-04T18:01:35.284Z,28.80
2019-02-04T18:04:04.843Z,23.27
2019-02-04T18:06:34.294Z,29.00
2019-02-04T18:09:05.356Z,22.67
2019-02-04T18:11:34.702Z,24.63
2019-02-04T18:14:04.062Z,24.90
2019-02-04T18:16:33.601Z,26.60
2019-02-04T18:19:02.985Z,21.60
2019-02-04T18:21:33.241Z,24.17
2019-02-04T18:24:02.633Z,25.43
2019-02-04T18:26:31.998Z,25.03
2019-02-04T18:29:01.391Z,25.93
2019-02-04T18:31:33.955Z,25.30
2019-02-04T18:34:01.797Z,26.93
2019-02-04T18:36:31.184Z,26.23
2019-02-04T18:39:01.434Z,24.87
2019-02-04T18:41:30.926Z,25.67
2019-02-04T18:44:00.332Z,24.03
2019-02-04T18:46:30.167Z,24.13
2019-02-04T18:48:59.536Z,22.20
2019-02-04T18:51:28.938Z,25.70
2019-02-04T18:53:58.305Z,22.33
2019-02-04T18:56:27.781Z,23.87
2019-02-04T18:58:57.321Z,22.10
2019-02-04T19:01:26.814Z,24.63
2019-02-04T19:04:11.939Z,24.43
2019-02-04T19:06:47.712Z,21.57
2019-02-04T19:09:12.805Z,21.63
2019-02-04T19:11:42.195Z,25.30
2019-02-04T19:14:12.244Z,22.90
2019-02-04T19:16:41.611Z,22.47
2019-02-04T19:19:11.159Z,21.80
2019-02-04T19:21:40.503Z,20.63
2019-02-04T19:24:10.086Z,25.67
2019-02-04T19:26:41.107Z,23.47
2019-02-04T19:29:10.447Z,24.87
2019-02-04T19:31:40.014Z,21.40
2019-02-04T19:34:10.064Z,23.07
2019-02-04T19:36:39.406Z,22.17
2019-02-04T19:39:10.594Z,24.37
2019-02-04T19:41:40.006Z,22.73
2019-02-04T19:44:09.658Z,22.33
2019-02-04T19:46:39.072Z,23.80
2019-02-04T19:49:08.399Z,23.20
2019-02-04T19:51:37.762Z,27.40
2019-02-04T19:54:07.138Z,23.20
2019-02-04T19:56:36.478Z,23.03
2019-02-04T19:59:06.149Z,23.27
2019-02-04T20:01:35.500Z,23.37
2019-02-04T20:04:04.918Z,30.70
2019-02-04T20:06:34.265Z,27.93
2019-02-04T20:09:07.762Z,32.13
2019-02-04T20:11:37.121Z,29.87
2019-02-04T20:14:06.947Z,26.60
2019-02-04T20:16:39.320Z,28.23
2019-02-04T20:19:08.058Z,27.03
2019-02-04T20:21:37.390Z,25.93
2019-02-04T20:24:07.431Z,26.23
2019-02-04T20:26:36.880Z,24.03
2019-02-04T20:29:06.227Z,26.17
2019-02-04T20:31:35.863Z,19.67
2019-02-04T20:34:05.801Z,23.47
2019-02-04T20:36:35.158Z,22.97
2019-02-04T20:39:07.785Z,19.63
2019-02-04T20:41:37.158Z,21.50
2019-02-04T20:44:06.603Z,20.17
2019-02-04T20:46:36.072Z,21.37
2019-02-04T20:49:05.689Z,18.47
2019-02-04T20:51:36.174Z,22.97
2019-02-04T20:54:06.082Z,21.20
2019-02-04T20:56:35.421Z,23.57
2019-02-04T20:59:04.788Z,21.57
2019-02-04T21:01:34.151Z,20.57
2019-02-04T21:04:05.526Z,20.27
2019-02-04T21:06:35.005Z,20.90
2019-02-04T21:09:07.429Z,22.07
2019-02-04T21:11:37.239Z,19.50
2019-02-04T21:14:07.473Z,18.03
2019-02-04T21:16:36.865Z,19.63
2019-02-04T21:19:06.224Z,20.87
2019-02-04T21:21:35.733Z,21.93
2019-02-04T21:24:05.893Z,19.93
2019-02-04T21:26:35.654Z,19.67
2019-02-04T21:29:05.034Z,22.20
2019-02-04T21:31:34.366Z,20.13
2019-02-04T21:34:03.921Z,21.37
2019-02-04T21:36:33.231Z,19.80
2019-02-04T21:39:02.577Z,19.10
2019-02-04T21:41:31.963Z,22.70
2019-02-04T21:44:01.322Z,20.00
2019-02-04T21:46:30.787Z,23.80
2019-02-04T21:49:00.117Z,19.10
2019-02-04T21:51:29.499Z,22.43
2019-02-04T21:53:58.968Z,23.07
2019-02-04T21:56:28.349Z,20.23
2019-02-04T21:58:57.691Z,21.60
2019-02-04T22:01:27.030Z,20.07
2019-02-04T22:03:56.483Z,20.03
2019-02-04T22:06:25.848Z,22.10
2019-02-04T22:08:56.685Z,24.27
2019-02-04T22:11:26.349Z,21.40
2019-02-04T22:13:55.879Z,21.57
2019-02-04T22:16:27.377Z,19.53
2019-02-04T22:18:57.052Z,22.27
2019-02-04T22:21:26.419Z,19.93
2019-02-04T22:23:56.145Z,21.70
2019-02-04T22:26:25.520Z,19.57
2019-02-04T22:28:54.860Z,24.20
2019-02-04T22:31:24.188Z,24.17
2019-02-04T22:33:53.634Z,24.57
2019-02-04T22:36:23.075Z,20.80
2019-02-04T22:38:52.416Z,24.00
2019-02-04T22:41:21.816Z,23.33
2019-02-04T22:43:51.131Z,24.60
2019-02-04T22:46:20.456Z,21.43
2019-02-04T22:48:52.656Z,20.17
2019-02-04T22:51:22.065Z,22.63
2019-02-04T22:53:51.418Z,21.03
2019-02-04T22:56:20.784Z,22.37
2019-02-04T22:58:52.182Z,19.17
2019-02-04T23:01:44.075Z,20.37
2019-02-04T23:04:13.815Z,20.60
2019-02-04T23:06:43.660Z,22.57
2019-02-04T23:09:13.028Z,22.17
2019-02-04T23:11:42.357Z,21.47
2019-02-04T23:14:11.704Z,20.90
2019-02-04T23:16:41.050Z,18.73
2019-02-04T23:19:10.548Z,22.23
2019-02-04T23:21:40.827Z,20.63
2019-02-04T23:24:10.172Z,19.63
2019-02-04T23:26:39.480Z,20.87
2019-02-04T23:29:08.842Z,23.33
2019-02-04T23:31:38.375Z,19.87
2019-02-04T23:34:07.715Z,19.60
2019-02-04T23:36:37.561Z,18.43
2019-02-04T23:39:09.382Z,19.90
2019-02-04T23:41:38.718Z,22.20
2019-02-04T23:44:08.103Z,21.00
2019-02-04T23:46:37.519Z,19.83
2019-02-04T23:49:07.264Z,18.73
2019-02-04T23:51:36.647Z,20.47
2019-02-04T23:54:06.856Z,18.63
2019-02-04T23:56:36.205Z,19.43
2019-02-04T23:59:05.765Z,17.77
